createdAt,value
2019-03-24T00:02:27.310Z,6.40
2019-03-24T00:04:57.918Z,6.30
2019-03-24T00:07:28.483Z,6.20
2019-03-24T00:09:59.062Z,6.10
2019-03-24T00:12:29.638Z,6.00
2019-03-24T00:15:00.340Z,5.90
2019-03-24T00:17:30.838Z,5.90
2019-03-24T00:20:01.446Z,6.00
2019-03-24T00:22:32.007Z,6.10
2019-03-24T00:25:02.578Z,6.20
2019-03-24T00:27:33.272Z,6.20
2019-03-24T00:30:03.856Z,6.20
2019-03-24T00:32:34.472Z,6.20
2019-03-24T00:35:05.059Z,6.10
2019-03-24T00:37:35.588Z,6.10
2019-03-24T00:40:06.676Z,6.10
2019-03-24T00:42:37.358Z,6.00
2019-03-24T00:45:07.948Z,6.00
2019-03-24T00:47:38.584Z,6.10
2019-03-24T00:50:09.218Z,6.20
2019-03-24T00:52:39.858Z,6.20
2019-03-24T00:55:10.401Z,6.20
2019-03-24T00:57:41.006Z,6.10
2019-03-24T01:00:11.684Z,6.00
2019-03-24T01:02:42.258Z,5.90
2019-03-24T01:05:12.826Z,5.90
2019-03-24T01:07:43.463Z,5.90
2019-03-24T01:10:14.119Z,5.90
2019-03-24T01:12:44.744Z,6.00
2019-03-24T01:15:20.606Z,6.00
2019-03-24T01:17:51.141Z,6.00
2019-03-24T01:20:21.842Z,5.90
2019-03-24T01:22:52.450Z,5.70
2019-03-24T01:25:22.989Z,5.50
2019-03-24T01:27:53.590Z,5.40
2019-03-24T01:30:24.698Z,5.30
2019-03-24T01:32:55.829Z,5.40
2019-03-24T01:35:26.388Z,5.50
2019-03-24T01:37:56.972Z,5.50
2019-03-24T01:40:27.570Z,5.60
2019-03-24T01:42:58.157Z,5.60
2019-03-24T01:45:28.760Z,5.50
2019-03-24T01:47:59.331Z,5.50
2019-03-24T01:50:30.450Z,5.50
2019-03-24T01:53:01.108Z,5.50
2019-03-24T01:55:31.736Z,5.60
2019-03-24T01:58:02.345Z,5.60
2019-03-24T02:00:33.033Z,5.70
2019-03-24T02:03:19.413Z,5.70
2019-03-24T02:09:17.172Z,5.90
2019-03-24T02:11:47.955Z,5.80
2019-03-24T02:15:23.330Z,5.80
2019-03-24T02:17:12.295Z,5.70
2019-03-24T02:19:47.121Z,5.60
2019-03-24T02:22:20.810Z,5.50
2019-03-24T02:25:14.000Z,5.30
2019-03-24T02:27:45.615Z,5.30
2019-03-24T02:30:19.009Z,5.30
2019-03-24T02:32:51.625Z,5.20
2019-03-24T02:35:23.224Z,5.20
2019-03-24T02:38:21.400Z,5.20
2019-03-24T02:44:43.083Z,5.10
2019-03-24T02:47:44.203Z,5.00
2019-03-24T02:50:17.221Z,5.00
2019-03-24T02:56:19.516Z,5.20
2019-03-24T02:58:51.469Z,5.40
2019-03-24T03:02:03.533Z,5.40
2019-03-24T03:04:50.263Z,5.50
2019-03-24T03:07:21.911Z,5.40
2019-03-24T03:09:55.078Z,5.20
2019-03-24T03:12:27.920Z,5.10
2019-03-24T03:15:00.845Z,4.90
2019-03-24T03:17:31.499Z,4.80
2019-03-24T03:20:03.815Z,4.70
2019-03-24T03:22:34.386Z,4.70
2019-03-24T03:25:05.355Z,4.70
2019-03-24T03:27:35.965Z,4.70
2019-03-24T03:30:08.559Z,4.80
2019-03-24T03:32:39.313Z,4.90
2019-03-24T03:35:11.669Z,5.00
2019-03-24T03:37:42.277Z,5.00
2019-03-24T03:40:13.770Z,4.90
2019-03-24T03:42:44.711Z,4.90
2019-03-24T03:45:22.228Z,4.90
2019-03-24T03:47:54.714Z,4.80
2019-03-24T03:50:25.322Z,4.80
2019-03-24T03:52:56.863Z,4.70
2019-03-24T03:55:28.923Z,4.70
2019-03-24T03:57:59.623Z,4.70
2019-03-24T04:00:35.101Z,4.80
2019-03-24T04:03:05.817Z,4.80
2019-03-24T04:05:37.836Z,4.80
2019-03-24T04:08:08.931Z,4.80
2019-03-24T04:10:40.658Z,4.70
2019-03-24T04:13:11.378Z,4.70
2019-03-24T04:15:42.980Z,4.60
2019-03-24T04:18:14.507Z,4.60
2019-03-24T04:20:46.740Z,4.60
2019-03-24T04:23:18.243Z,4.60
2019-03-24T04:25:49.195Z,4.60
2019-03-24T04:28:19.901Z,4.60
2019-03-24T04:30:53.811Z,4.70
2019-03-24T04:33:24.400Z,4.80
2019-03-24T04:35:58.021Z,4.80
2019-03-24T04:38:30.001Z,4.80
2019-03-24T04:41:01.707Z,4.90
2019-03-24T04:43:32.894Z,4.90
2019-03-24T04:46:03.509Z,4.90
2019-03-24T04:48:34.672Z,4.90
2019-03-24T04:51:05.390Z,5.00
2019-03-24T04:53:36.023Z,5.00
2019-03-24T04:56:06.575Z,5.00
2019-03-24T04:58:37.295Z,5.00
2019-03-24T05:01:07.879Z,4.90
2019-03-24T05:03:39.103Z,4.90
2019-03-24T05:06:09.658Z,4.90
2019-03-24T05:08:40.497Z,4.90
2019-03-24T05:11:11.129Z,4.90
2019-03-24T05:13:42.808Z,4.90
2019-03-24T05:16:14.550Z,5.00
2019-03-24T05:18:45.177Z,5.10
2019-03-24T05:21:16.470Z,5.10
2019-03-24T05:23:48.094Z,5.00
2019-03-24T05:26:21.824Z,5.10
2019-03-24T05:28:52.410Z,5.00
2019-03-24T05:31:23.049Z,4.90
2019-03-24T05:33:53.761Z,4.90
2019-03-24T05:36:24.887Z,4.80
2019-03-24T05:38:56.062Z,4.70
2019-03-24T05:41:26.601Z,4.70
2019-03-24T05:43:57.143Z,4.80
2019-03-24T05:46:27.751Z,4.80
2019-03-24T05:48:58.302Z,4.90
2019-03-24T05:51:28.868Z,5.00
2019-03-24T05:54:02.247Z,5.00
2019-03-24T05:56:32.865Z,5.00
2019-03-24T05:59:03.897Z,5.10
2019-03-24T06:01:34.488Z,5.10
2019-03-24T06:04:05.052Z,5.00
2019-03-24T06:06:36.139Z,5.10
2019-03-24T06:09:07.731Z,5.10
2019-03-24T06:11:38.353Z,5.10
2019-03-24T06:14:08.959Z,5.20
2019-03-24T06:16:39.546Z,5.20
2019-03-24T06:19:10.112Z,5.30
2019-03-24T06:21:40.742Z,5.40
2019-03-24T06:24:11.294Z,5.40
2019-03-24T06:26:42.016Z,5.50
2019-03-24T06:29:12.588Z,5.60
2019-03-24T06:31:43.202Z,5.50
2019-03-24T06:34:13.840Z,5.50
2019-03-24T06:36:44.426Z,5.60
2019-03-24T06:39:15.577Z,5.70
2019-03-24T06:41:46.150Z,5.70
2019-03-24T06:44:16.829Z,5.80
2019-03-24T06:46:47.441Z,5.90
2019-03-24T06:49:18.518Z,6.10
2019-03-24T06:51:49.113Z,6.10
2019-03-24T06:54:19.751Z,6.20
2019-03-24T06:56:51.492Z,6.30
2019-03-24T06:59:22.120Z,6.40
2019-03-24T07:01:52.673Z,6.40
2019-03-24T07:04:23.396Z,6.40
2019-03-24T07:06:55.186Z,6.50
2019-03-24T07:09:25.785Z,6.50
2019-03-24T07:11:56.852Z,6.60
2019-03-24T07:14:27.498Z,6.70
2019-03-24T07:16:58.092Z,6.70
2019-03-24T07:19:28.645Z,6.80
2019-03-24T07:21:59.256Z,6.90
2019-03-24T07:24:29.841Z,7.00
2019-03-24T07:27:03.837Z,7.10
2019-03-24T07:29:38.735Z,7.10
2019-03-24T07:35:51.857Z,7.30
2019-03-24T07:38:30.026Z,7.40
2019-03-24T07:41:00.678Z,7.50
2019-03-24T07:43:31.282Z,7.60
2019-03-24T07:46:01.815Z,7.70
2019-03-24T07:48:32.420Z,7.80
2019-03-24T07:51:03.025Z,7.80
2019-03-24T07:53:33.614Z,8.00
2019-03-24T07:56:04.211Z,8.10
2019-03-24T07:58:34.806Z,8.30
2019-03-24T08:01:05.417Z,8.30
2019-03-24T08:03:37.099Z,8.40
2019-03-24T08:06:07.650Z,8.50
2019-03-24T08:08:44.231Z,8.50
2019-03-24T08:11:10.501Z,8.60
2019-03-24T08:13:52.916Z,8.70
2019-03-24T08:16:13.586Z,8.70
2019-03-24T08:18:44.515Z,8.80
2019-03-24T08:21:15.187Z,8.80
2019-03-24T08:23:45.691Z,8.90
2019-03-24T08:26:16.428Z,9.10
2019-03-24T08:28:47.041Z,9.20
2019-03-24T08:31:17.861Z,9.20
2019-03-24T08:33:48.703Z,9.30
2019-03-24T08:36:19.405Z,9.50
2019-03-24T08:38:50.198Z,9.60
2019-03-24T08:41:20.711Z,9.70
2019-03-24T08:43:51.430Z,9.80
2019-03-24T08:46:22.172Z,9.90
2019-03-24T08:48:53.070Z,10.00
2019-03-24T08:51:23.676Z,10.20
2019-03-24T08:53:54.532Z,10.30
2019-03-24T08:56:25.402Z,10.30
2019-03-24T08:58:56.204Z,10.40
2019-03-24T09:01:26.949Z,10.60
2019-03-24T09:03:57.813Z,10.70
2019-03-24T09:06:28.550Z,10.90
2019-03-24T09:08:59.296Z,11.00
2019-03-24T09:11:31.544Z,11.10
2019-03-24T09:14:02.337Z,11.20
2019-03-24T09:16:33.216Z,11.40
2019-03-24T09:19:03.947Z,11.50
2019-03-24T09:21:34.817Z,11.60
2019-03-24T09:24:05.349Z,11.70
2019-03-24T09:26:35.885Z,11.60
2019-03-24T09:29:06.425Z,11.80
2019-03-24T09:31:36.990Z,11.90
2019-03-24T09:34:07.707Z,11.90
2019-03-24T09:36:42.146Z,12.00
2019-03-24T09:39:12.606Z,12.00
2019-03-24T09:41:44.912Z,12.00
2019-03-24T09:44:15.664Z,12.00
2019-03-24T09:47:30.275Z,12.00
2019-03-24T09:50:01.143Z,12.10
2019-03-24T09:52:31.632Z,12.10
2019-03-24T09:55:02.233Z,12.10
2019-03-24T09:57:32.773Z,12.20
2019-03-24T10:00:03.471Z,12.30
2019-03-24T10:02:34.138Z,12.40
2019-03-24T10:05:05.820Z,12.40
2019-03-24T10:07:36.311Z,12.50
2019-03-24T10:10:06.907Z,12.60
2019-03-24T10:12:37.490Z,12.70
2019-03-24T10:15:08.122Z,12.70
2019-03-24T10:17:38.575Z,12.80
2019-03-24T10:20:09.272Z,12.80
2019-03-24T10:22:39.889Z,12.80
2019-03-24T10:25:10.738Z,13.00
2019-03-24T10:27:44.029Z,13.10
2019-03-24T10:30:14.987Z,13.40
2019-03-24T10:32:48.487Z,13.50
2019-03-24T10:35:19.751Z,13.60
2019-03-24T10:37:50.670Z,13.60
2019-03-24T10:40:28.485Z,13.70
2019-03-24T10:42:53.906Z,13.80
2019-03-24T10:45:24.605Z,13.90
2019-03-24T10:47:55.429Z,14.00
2019-03-24T10:50:39.289Z,14.10
2019-03-24T10:53:09.841Z,14.20
2019-03-24T10:55:40.716Z,14.20
2019-03-24T10:58:11.525Z,14.30
2019-03-24T11:00:43.419Z,14.40
2019-03-24T11:03:14.240Z,14.60
2019-03-24T11:05:44.783Z,14.70
2019-03-24T11:08:15.497Z,14.70
2019-03-24T11:10:46.237Z,14.80
2019-03-24T11:13:16.736Z,14.90
2019-03-24T11:15:47.299Z,14.90
2019-03-24T11:18:17.849Z,15.00
2019-03-24T11:20:54.307Z,15.10
2019-03-24T11:23:24.859Z,15.20
2019-03-24T11:25:55.431Z,15.20
2019-03-24T11:28:25.906Z,15.30
2019-03-24T11:30:56.388Z,15.40
2019-03-24T11:33:26.893Z,15.40
2019-03-24T11:35:57.398Z,15.60
2019-03-24T11:38:27.972Z,15.60
2019-03-24T11:40:58.689Z,15.60
2019-03-24T11:43:29.335Z,15.60
2019-03-24T11:46:00.236Z,15.60
2019-03-24T11:48:30.995Z,15.60
2019-03-24T11:51:01.685Z,15.60
2019-03-24T11:53:32.226Z,15.60
2019-03-24T11:56:02.716Z,15.60
2019-03-24T11:58:33.292Z,15.70
2019-03-24T12:01:04.022Z,15.70
2019-03-24T12:03:34.810Z,15.80
2019-03-24T12:06:14.034Z,15.80
2019-03-24T12:08:38.826Z,15.80
2019-03-24T12:11:09.456Z,15.90
2019-03-24T12:13:40.003Z,16.00
2019-03-24T12:16:10.542Z,16.00
2019-03-24T12:18:41.067Z,16.10
2019-03-24T12:21:11.882Z,16.20
2019-03-24T12:23:42.414Z,16.20
2019-03-24T12:26:12.962Z,16.30
2019-03-24T12:28:43.443Z,16.40
2019-03-24T12:31:14.261Z,16.40
2019-03-24T12:33:44.795Z,16.30
2019-03-24T12:36:15.502Z,16.40
2019-03-24T12:38:46.140Z,16.40
2019-03-24T12:41:17.221Z,16.50
2019-03-24T12:43:48.095Z,16.50
2019-03-24T12:46:18.658Z,16.50
2019-03-24T12:48:49.151Z,16.60
2019-03-24T12:51:20.283Z,16.70
2019-03-24T12:53:51.067Z,16.70
2019-03-24T12:56:21.609Z,16.70
2019-03-24T12:58:52.142Z,16.70
2019-03-24T13:01:22.783Z,16.70
2019-03-24T13:03:53.314Z,16.60
2019-03-24T13:06:24.056Z,16.60
2019-03-24T13:08:55.010Z,16.60
2019-03-24T13:11:25.753Z,16.70
2019-03-24T13:13:56.322Z,16.60
2019-03-24T13:16:27.156Z,16.60
2019-03-24T13:18:57.990Z,16.60
2019-03-24T13:21:28.879Z,16.60
2019-03-24T13:23:59.707Z,16.70
2019-03-24T13:26:30.434Z,16.70
2019-03-24T13:29:01.204Z,16.80
2019-03-24T13:31:31.968Z,16.70
2019-03-24T13:34:02.861Z,16.80
2019-03-24T13:36:33.845Z,16.80
2019-03-24T13:39:05.098Z,16.80
2019-03-24T13:41:35.959Z,16.70
2019-03-24T13:44:06.871Z,16.80
2019-03-24T13:46:37.687Z,16.80
2019-03-24T13:49:08.594Z,16.80
2019-03-24T13:51:39.388Z,16.80
2019-03-24T13:54:10.236Z,16.80
2019-03-24T13:56:41.020Z,16.80
2019-03-24T13:59:11.814Z,16.80
2019-03-24T14:01:42.657Z,16.80
2019-03-24T14:04:13.437Z,16.70
2019-03-24T14:06:44.156Z,16.70
2019-03-24T14:09:14.890Z,16.80
2019-03-24T14:11:45.717Z,16.80
2019-03-24T14:14:16.259Z,16.80
2019-03-24T14:16:47.063Z,16.80
2019-03-24T14:19:17.854Z,16.80
2019-03-24T14:21:48.596Z,16.80
2019-03-24T14:24:19.556Z,16.70
2019-03-24T14:26:50.281Z,16.80
2019-03-24T14:29:21.010Z,16.80
2019-03-24T14:31:51.873Z,16.80
2019-03-24T14:34:22.621Z,16.80
2019-03-24T14:36:53.501Z,16.70
2019-03-24T14:39:24.386Z,16.80
2019-03-24T14:41:55.084Z,16.70
2019-03-24T14:44:25.973Z,16.70
2019-03-24T14:46:56.686Z,16.50
2019-03-24T14:49:27.450Z,16.40
2019-03-24T14:51:58.285Z,16.30
2019-03-24T14:54:29.502Z,16.20
2019-03-24T14:57:00.379Z,16.10
2019-03-24T14:59:31.131Z,16.10
2019-03-24T15:02:01.891Z,16.10
2019-03-24T15:04:32.644Z,16.20
2019-03-24T15:07:03.444Z,16.30
2019-03-24T15:09:34.274Z,16.30
2019-03-24T15:12:05.330Z,16.20
2019-03-24T15:14:35.835Z,16.20
2019-03-24T15:17:06.593Z,16.20
2019-03-24T15:19:37.333Z,16.10
2019-03-24T15:22:07.935Z,16.20
2019-03-24T15:24:38.602Z,16.30
2019-03-24T15:27:09.161Z,16.30
2019-03-24T15:29:39.762Z,16.40
2019-03-24T15:32:10.373Z,16.50
2019-03-24T15:34:40.892Z,16.60
2019-03-24T15:37:11.419Z,16.70
2019-03-24T15:39:42.003Z,16.60
2019-03-24T15:42:12.617Z,16.60
2019-03-24T15:44:43.175Z,16.60
2019-03-24T15:47:14.035Z,16.50
2019-03-24T15:49:44.688Z,16.50
2019-03-24T15:52:15.459Z,16.50
2019-03-24T15:54:46.044Z,16.50
2019-03-24T15:57:16.848Z,16.50
2019-03-24T15:59:47.681Z,16.50
2019-03-24T16:02:18.370Z,16.50
2019-03-24T16:04:49.263Z,16.50
2019-03-24T16:07:20.245Z,16.40
2019-03-24T16:09:50.820Z,16.40
2019-03-24T16:12:21.507Z,16.40
2019-03-24T16:14:52.018Z,16.40
2019-03-24T16:17:22.466Z,16.30
2019-03-24T16:19:52.994Z,16.30
2019-03-24T16:22:23.681Z,16.30
2019-03-24T16:24:54.428Z,16.20
2019-03-24T16:27:25.161Z,16.10
2019-03-24T16:29:55.696Z,16.10
2019-03-24T16:32:29.301Z,16.00
2019-03-24T16:34:59.902Z,16.00
2019-03-24T16:37:30.508Z,16.00
2019-03-24T16:40:01.096Z,16.00
2019-03-24T16:42:31.696Z,16.00
2019-03-24T16:45:02.362Z,15.90
2019-03-24T16:47:32.950Z,15.80
2019-03-24T16:50:03.523Z,15.70
2019-03-24T16:52:34.193Z,15.60
2019-03-24T16:55:04.832Z,15.50
2019-03-24T16:57:35.352Z,15.40
2019-03-24T17:00:07.082Z,15.30
2019-03-24T17:02:38.133Z,15.20
2019-03-24T17:05:12.015Z,15.10
2019-03-24T17:07:42.575Z,14.90
2019-03-24T17:10:13.173Z,14.80
2019-03-24T17:12:43.707Z,14.70
2019-03-24T17:15:14.140Z,14.50
2019-03-24T17:17:44.703Z,14.40
2019-03-24T17:20:15.641Z,14.10
2019-03-24T17:22:46.205Z,14.00
2019-03-24T17:25:16.831Z,13.80
2019-03-24T17:27:47.316Z,13.70
2019-03-24T17:30:17.960Z,13.60
2019-03-24T17:32:48.585Z,13.50
2019-03-24T17:35:19.145Z,13.50
2019-03-24T17:37:51.271Z,13.40
2019-03-24T17:40:21.886Z,13.30
2019-03-24T17:42:52.809Z,13.20
2019-03-24T17:45:23.489Z,13.10
2019-03-24T17:47:54.295Z,13.00
2019-03-24T17:50:25.069Z,12.90
2019-03-24T17:52:55.792Z,12.80
2019-03-24T17:55:27.819Z,12.70
2019-03-24T17:57:59.320Z,12.50
2019-03-24T18:00:37.972Z,12.40
2019-03-24T18:03:08.698Z,12.20
2019-03-24T18:05:39.221Z,12.10
2019-03-24T18:08:09.885Z,12.10
2019-03-24T18:10:40.819Z,11.90
2019-03-24T18:13:11.543Z,11.80
2019-03-24T18:15:42.335Z,11.80
2019-03-24T18:18:12.847Z,11.70
2019-03-24T18:20:43.682Z,11.60
2019-03-24T18:23:14.244Z,11.50
2019-03-24T18:25:44.798Z,11.40
2019-03-24T18:28:15.526Z,11.30
2019-03-24T18:30:46.235Z,11.30
2019-03-24T18:33:16.805Z,11.10
2019-03-24T18:35:47.399Z,11.10
2019-03-24T18:38:18.313Z,11.00
2019-03-24T18:40:49.254Z,10.90
2019-03-24T18:43:19.973Z,10.80
2019-03-24T18:45:50.668Z,10.80
2019-03-24T18:48:21.487Z,10.80
2019-03-24T18:50:52.129Z,10.70
2019-03-24T18:53:23.072Z,10.60
2019-03-24T18:55:53.653Z,10.50
2019-03-24T18:58:24.184Z,10.50
2019-03-24T19:00:54.782Z,10.50
2019-03-24T19:03:25.195Z,10.40
2019-03-24T19:05:55.715Z,10.40
2019-03-24T19:08:26.246Z,10.30
2019-03-24T19:10:56.787Z,10.30
2019-03-24T19:13:27.349Z,10.30
2019-03-24T19:15:58.093Z,10.30
2019-03-24T19:18:28.786Z,10.30
2019-03-24T19:20:59.592Z,10.40
2019-03-24T19:23:30.390Z,10.40
2019-03-24T19:26:00.986Z,10.40
2019-03-24T19:28:31.500Z,10.40
2019-03-24T19:31:02.076Z,10.40
2019-03-24T19:33:32.632Z,10.40
2019-03-24T19:36:03.496Z,10.30
2019-03-24T19:38:34.094Z,10.20
2019-03-24T19:41:04.823Z,10.20
2019-03-24T19:43:35.523Z,10.20
2019-03-24T19:46:06.080Z,10.20
2019-03-24T19:48:36.868Z,10.10
2019-03-24T19:51:07.651Z,10.00
2019-03-24T19:53:38.387Z,10.00
2019-03-24T19:56:09.165Z,9.90
2019-03-24T19:58:39.639Z,9.80
2019-03-24T20:01:10.614Z,9.90
2019-03-24T20:03:43.428Z,9.90
2019-03-24T20:06:13.460Z,9.90
2019-03-24T20:08:44.306Z,9.90
2019-03-24T20:11:14.967Z,9.90
2019-03-24T20:13:45.726Z,9.90
2019-03-24T20:16:16.508Z,9.90
2019-03-24T20:18:47.018Z,9.90
2019-03-24T20:21:17.741Z,9.90
2019-03-24T20:23:48.638Z,9.90
2019-03-24T20:26:19.168Z,9.90
2019-03-24T20:28:49.651Z,10.00
2019-03-24T20:31:20.244Z,10.00
2019-03-24T20:33:50.762Z,10.00
2019-03-24T20:36:21.395Z,10.00
2019-03-24T20:38:51.946Z,10.00
2019-03-24T20:41:22.862Z,10.00
2019-03-24T20:43:53.628Z,9.90
2019-03-24T20:46:24.362Z,9.90
2019-03-24T20:48:54.843Z,9.80
2019-03-24T20:51:25.519Z,9.80
2019-03-24T20:53:56.295Z,9.80
2019-03-24T20:56:27.062Z,9.70
2019-03-24T20:58:57.543Z,9.60
2019-03-24T21:01:28.411Z,9.50
2019-03-24T21:03:59.229Z,9.50
2019-03-24T21:06:29.903Z,9.60
2019-03-24T21:09:00.692Z,9.70
2019-03-24T21:11:31.183Z,9.90
2019-03-24T21:14:02.014Z,10.10
2019-03-24T21:16:32.746Z,10.30
2019-03-24T21:19:03.260Z,10.40
2019-03-24T21:21:36.156Z,10.60
2019-03-24T21:24:06.511Z,10.90
2019-03-24T21:26:37.341Z,11.10
2019-03-24T21:29:08.052Z,11.20
2019-03-24T21:31:38.976Z,11.20
2019-03-24T21:34:09.503Z,11.20
2019-03-24T21:36:40.387Z,11.20
2019-03-24T21:39:10.927Z,11.20
2019-03-24T21:41:41.421Z,11.30
2019-03-24T21:44:12.100Z,11.30
2019-03-24T21:46:43.040Z,11.30
2019-03-24T21:49:13.552Z,11.20
2019-03-24T21:51:44.055Z,11.20
2019-03-24T21:54:14.824Z,11.20
2019-03-24T21:56:45.549Z,11.20
2019-03-24T21:59:16.243Z,11.20
2019-03-24T22:01:47.086Z,11.20
2019-03-24T22:04:17.584Z,11.10
2019-03-24T22:06:48.365Z,11.10
2019-03-24T22:09:19.069Z,11.20
2019-03-24T22:11:49.808Z,11.10
2019-03-24T22:14:20.540Z,11.10
2019-03-24T22:16:51.040Z,11.00
2019-03-24T22:19:21.629Z,11.00
2019-03-24T22:21:52.165Z,11.00
2019-03-24T22:24:22.670Z,11.00
2019-03-24T22:26:53.562Z,10.90
2019-03-24T22:29:24.300Z,10.80
2019-03-24T22:31:55.096Z,10.80
2019-03-24T22:34:25.583Z,10.80
2019-03-24T22:36:56.343Z,10.70
2019-03-24T22:39:26.845Z,10.70
2019-03-24T22:41:57.753Z,10.70
2019-03-24T22:44:28.669Z,10.60
2019-03-24T22:46:59.212Z,10.60
2019-03-24T22:49:29.703Z,10.60
2019-03-24T22:52:07.200Z,10.70
2019-03-24T22:54:32.843Z,10.70
2019-03-24T22:57:03.563Z,10.70
2019-03-24T22:59:34.347Z,10.70
2019-03-24T23:02:05.167Z,10.60
2019-03-24T23:04:35.914Z,10.60
2019-03-24T23:07:06.785Z,10.70
2019-03-24T23:09:37.272Z,10.70
2019-03-24T23:12:08.008Z,10.70
2019-03-24T23:14:38.508Z,10.70
2019-03-24T23:17:09.204Z,10.70
2019-03-24T23:19:39.956Z,10.60
2019-03-24T23:22:10.496Z,10.60
2019-03-24T23:24:41.207Z,10.60
2019-03-24T23:27:11.931Z,10.60
2019-03-24T23:29:42.435Z,10.50
2019-03-24T23:32:13.098Z,10.50
2019-03-24T23:34:43.836Z,10.50
2019-03-24T23:37:14.617Z,10.50
2019-03-24T23:39:45.269Z,10.50
2019-03-24T23:42:15.911Z,10.50
2019-03-24T23:44:46.640Z,10.60
2019-03-24T23:47:17.502Z,10.60
2019-03-24T23:49:48.259Z,10.70
2019-03-24T23:52:19.019Z,10.60
2019-03-24T23:54:49.617Z,10.60
2019-03-24T23:57:20.455Z,10.50
2019-03-24T23:59:50.972Z,10.50
